Terminal Aerodrome Forecast
Issued by NWS Amarillo, TX

Home | Current Version | Previous Version | Text Only | Print | Product List | Glossary On
Versions: 1 2 3 4 5 6 7 8 9 10 11 12 13 14
000
FTUS44 KAMA 052300 RRA
TAFDHT
TAF
KDHT 052347Z 0600/0624 18015G25KT P6SM BKN250
     FM060200 17014KT P6SM BKN200
     FM061400 01017KT P6SM BKN070 PROB30 0615/0621 -TSRA OVC050CB=

USA.gov is the U.S. government's official web portal to all federal, state and local government web resources and services.